sensor_id;sensor_type;location;lat;lon;timestamp;temperature;humidity
292;DHT22;23311;48.776;9.162;2023-01-19T00:00:17;-2.10;95.50
292;DHT22;23311;48.776;9.162;2023-01-19T00:02:45;-2.20;95.50
292;DHT22;23311;48.776;9.162;2023-01-19T00:05:14;-2.10;95.50
292;DHT22;23311;48.776;9.162;2023-01-19T00:07:43;-2.20;95.50
292;DHT22;23311;48.776;9.162;2023-01-19T00:10:11;-2.40;95.50
292;DHT22;23311;48.776;9.162;2023-01-19T00:12:39;-2.50;95.50
292;DHT22;23311;48.776;9.162;2023-01-19T00:15:08;-2.60;95.50
292;DHT22;23311;48.776;9.162;2023-01-19T00:17:36;-2.40;95.50
292;DHT22;23311;48.776;9.162;2023-01-19T00:20:08;-2.50;95.50
292;DHT22;23311;48.776;9.162;2023-01-19T00:22:36;-2.40;95.50
292;DHT22;23311;48.776;9.162;2023-01-19T00:25:06;-2.50;95.50
292;DHT22;23311;48.776;9.162;2023-01-19T00:27:34;-2.70;95.50
292;DHT22;23311;48.776;9.162;2023-01-19T00:30:03;-2.80;95.50
292;DHT22;23311;48.776;9.162;2023-01-19T00:32:31;-2.70;95.50
292;DHT22;23311;48.776;9.162;2023-01-19T00:34:59;-2.70;95.50
292;DHT22;23311;48.776;9.162;2023-01-19T00:37:27;-2.70;95.50
292;DHT22;23311;48.776;9.162;2023-01-19T00:39:55;-2.80;95.50
292;DHT22;23311;48.776;9.162;2023-01-19T00:42:24;-2.60;95.50
292;DHT22;23311;48.776;9.162;2023-01-19T00:45:08;-2.50;95.50
292;DHT22;23311;48.776;9.162;2023-01-19T00:47:37;-2.50;95.50
292;DHT22;23311;48.776;9.162;2023-01-19T00:50:07;-2.60;95.50
292;DHT22;23311;48.776;9.162;2023-01-19T00:52:37;-2.60;95.50
292;DHT22;23311;48.776;9.162;2023-01-19T00:55:07;-2.70;95.50
292;DHT22;23311;48.776;9.162;2023-01-19T00:57:37;-2.70;95.50
292;DHT22;23311;48.776;9.162;2023-01-19T01:00:07;-2.90;95.50
292;DHT22;23311;48.776;9.162;2023-01-19T01:02:39;-2.90;95.50
292;DHT22;23311;48.776;9.162;2023-01-19T01:05:08;-2.90;95.50
292;DHT22;23311;48.776;9.162;2023-01-19T01:07:37;-2.90;95.50
292;DHT22;23311;48.776;9.162;2023-01-19T01:10:08;-2.80;95.50
292;DHT22;23311;48.776;9.162;2023-01-19T01:12:38;-2.80;95.50
292;DHT22;23311;48.776;9.162;2023-01-19T01:15:08;-2.90;95.50
292;DHT22;23311;48.776;9.162;2023-01-19T01:17:36;-2.90;95.50
292;DHT22;23311;48.776;9.162;2023-01-19T01:20:15;-2.90;95.50
292;DHT22;23311;48.776;9.162;2023-01-19T01:22:45;-2.90;95.50
292;DHT22;23311;48.776;9.162;2023-01-19T01:25:14;-2.80;95.50
292;DHT22;23311;48.776;9.162;2023-01-19T01:27:44;-2.80;95.50
292;DHT22;23311;48.776;9.162;2023-01-19T01:30:13;-2.70;95.50
292;DHT22;23311;48.776;9.162;2023-01-19T01:32:42;-2.50;95.50
292;DHT22;23311;48.776;9.162;2023-01-19T01:35:10;-2.60;95.50
292;DHT22;23311;48.776;9.162;2023-01-19T01:37:39;-2.60;95.50
292;DHT22;23311;48.776;9.162;2023-01-19T01:40:10;-2.50;95.50
292;DHT22;23311;48.776;9.162;2023-01-19T01:42:39;-2.70;95.50
292;DHT22;23311;48.776;9.162;2023-01-19T01:45:26;-2.90;95.50
292;DHT22;23311;48.776;9.162;2023-01-19T01:47:57;-2.80;95.50
292;DHT22;23311;48.776;9.162;2023-01-19T01:50:28;-2.80;95.50
292;DHT22;23311;48.776;9.162;2023-01-19T01:52:59;-3.00;95.50
292;DHT22;23311;48.776;9.162;2023-01-19T01:55:37;-3.10;95.50
292;DHT22;23311;48.776;9.162;2023-01-19T01:58:08;-3.30;95.50
292;DHT22;23311;48.776;9.162;2023-01-19T02:00:39;-3.30;95.50
292;DHT22;23311;48.776;9.162;2023-01-19T02:03:25;-3.10;95.50
292;DHT22;23311;48.776;9.162;2023-01-19T02:05:54;-3.10;95.50
292;DHT22;23311;48.776;9.162;2023-01-19T02:08:29;-3.10;95.50
292;DHT22;23311;48.776;9.162;2023-01-19T02:11:16;-3.00;95.50
292;DHT22;23311;48.776;9.162;2023-01-19T02:14:03;-3.10;95.50
292;DHT22;23311;48.776;9.162;2023-01-19T02:16:32;-3.10;95.50
292;DHT22;23311;48.776;9.162;2023-01-19T02:19:01;-3.20;95.50
292;DHT22;23311;48.776;9.162;2023-01-19T02:21:35;-3.20;95.50
292;DHT22;23311;48.776;9.162;2023-01-19T02:24:07;-3.20;95.50
292;DHT22;23311;48.776;9.162;2023-01-19T02:26:38;-3.10;95.50
292;DHT22;23311;48.776;9.162;2023-01-19T02:29:08;-3.10;95.50
292;DHT22;23311;48.776;9.162;2023-01-19T02:31:38;-3.10;95.50
292;DHT22;23311;48.776;9.162;2023-01-19T02:34:08;-3.00;95.50
292;DHT22;23311;48.776;9.162;2023-01-19T02:36:40;-3.10;95.50
292;DHT22;23311;48.776;9.162;2023-01-19T02:39:11;-3.00;95.50
292;DHT22;23311;48.776;9.162;2023-01-19T02:41:45;-3.10;95.50
292;DHT22;23311;48.776;9.162;2023-01-19T02:44:15;-2.90;95.50
292;DHT22;23311;48.776;9.162;2023-01-19T02:46:44;-2.90;95.50
292;DHT22;23311;48.776;9.162;2023-01-19T02:49:12;-2.80;95.50
292;DHT22;23311;48.776;9.162;2023-01-19T02:51:42;-2.90;95.50
292;DHT22;23311;48.776;9.162;2023-01-19T02:54:21;-3.00;95.50
292;DHT22;23311;48.776;9.162;2023-01-19T03:00:01;-3.10;95.50
292;DHT22;23311;48.776;9.162;2023-01-19T03:02:42;-3.10;95.50
292;DHT22;23311;48.776;9.162;2023-01-19T03:05:20;-2.90;95.50
292;DHT22;23311;48.776;9.162;2023-01-19T03:07:57;-3.00;95.50
292;DHT22;23311;48.776;9.162;2023-01-19T03:10:34;-3.10;95.50
292;DHT22;23311;48.776;9.162;2023-01-19T03:13:10;-2.90;95.50
292;DHT22;23311;48.776;9.162;2023-01-19T03:15:44;-2.90;95.50
292;DHT22;23311;48.776;9.162;2023-01-19T03:18:19;-3.00;95.50
292;DHT22;23311;48.776;9.162;2023-01-19T03:20:50;-3.00;95.50
292;DHT22;23311;48.776;9.162;2023-01-19T03:23:20;-3.00;95.50
292;DHT22;23311;48.776;9.162;2023-01-19T03:25:53;-3.10;95.50
292;DHT22;23311;48.776;9.162;2023-01-19T03:28:24;-3.10;95.50
292;DHT22;23311;48.776;9.162;2023-01-19T03:30:57;-3.20;95.50
292;DHT22;23311;48.776;9.162;2023-01-19T03:33:28;-3.40;95.50
292;DHT22;23311;48.776;9.162;2023-01-19T03:36:00;-3.40;95.50
292;DHT22;23311;48.776;9.162;2023-01-19T03:38:34;-3.20;95.50
292;DHT22;23311;48.776;9.162;2023-01-19T03:41:07;-3.10;95.50
292;DHT22;23311;48.776;9.162;2023-01-19T03:43:37;-2.90;95.50
292;DHT22;23311;48.776;9.162;2023-01-19T03:46:06;-2.80;95.50
292;DHT22;23311;48.776;9.162;2023-01-19T03:48:37;-2.90;95.50
292;DHT22;23311;48.776;9.162;2023-01-19T03:51:07;-2.90;95.50
292;DHT22;23311;48.776;9.162;2023-01-19T03:53:35;-2.80;95.50
292;DHT22;23311;48.776;9.162;2023-01-19T03:56:06;-2.80;95.50
292;DHT22;23311;48.776;9.162;2023-01-19T03:58:36;-2.90;95.50
292;DHT22;23311;48.776;9.162;2023-01-19T04:01:04;-2.90;95.50
292;DHT22;23311;48.776;9.162;2023-01-19T04:03:33;-2.80;95.50
292;DHT22;23311;48.776;9.162;2023-01-19T04:06:01;-2.70;95.50
292;DHT22;23311;48.776;9.162;2023-01-19T04:08:29;-2.80;95.50
292;DHT22;23311;48.776;9.162;2023-01-19T04:10:58;-2.90;95.50
292;DHT22;23311;48.776;9.162;2023-01-19T04:13:27;-3.10;95.50
292;DHT22;23311;48.776;9.162;2023-01-19T04:15:58;-3.00;95.50
292;DHT22;23311;48.776;9.162;2023-01-19T04:18:28;-3.10;95.50
292;DHT22;23311;48.776;9.162;2023-01-19T04:20:58;-3.20;95.50
292;DHT22;23311;48.776;9.162;2023-01-19T04:23:27;-3.10;95.50
292;DHT22;23311;48.776;9.162;2023-01-19T04:25:58;-3.10;95.50
292;DHT22;23311;48.776;9.162;2023-01-19T04:28:28;-3.10;95.50
292;DHT22;23311;48.776;9.162;2023-01-19T04:30:56;-3.10;95.50
292;DHT22;23311;48.776;9.162;2023-01-19T04:33:25;-2.80;95.50
292;DHT22;23311;48.776;9.162;2023-01-19T04:35:53;-2.80;95.50
292;DHT22;23311;48.776;9.162;2023-01-19T04:38:22;-2.60;95.50
292;DHT22;23311;48.776;9.162;2023-01-19T04:40:51;-2.60;95.50
292;DHT22;23311;48.776;9.162;2023-01-19T04:43:19;-2.60;95.50
292;DHT22;23311;48.776;9.162;2023-01-19T04:45:49;-2.60;95.50
292;DHT22;23311;48.776;9.162;2023-01-19T04:48:17;-2.60;95.50
292;DHT22;23311;48.776;9.162;2023-01-19T04:50:46;-2.70;95.50
292;DHT22;23311;48.776;9.162;2023-01-19T04:53:14;-2.70;95.50
292;DHT22;23311;48.776;9.162;2023-01-19T04:55:44;-2.70;95.50
292;DHT22;23311;48.776;9.162;2023-01-19T04:58:12;-2.60;95.50
292;DHT22;23311;48.776;9.162;2023-01-19T05:00:42;-2.60;95.50
292;DHT22;23311;48.776;9.162;2023-01-19T05:03:11;-2.60;95.50
292;DHT22;23311;48.776;9.162;2023-01-19T05:05:39;-2.60;95.50
292;DHT22;23311;48.776;9.162;2023-01-19T05:08:07;-2.70;95.50
292;DHT22;23311;48.776;9.162;2023-01-19T05:10:35;-2.80;95.50
292;DHT22;23311;48.776;9.162;2023-01-19T05:13:03;-2.90;95.50
292;DHT22;23311;48.776;9.162;2023-01-19T05:15:32;-2.80;95.50
292;DHT22;23311;48.776;9.162;2023-01-19T05:18:00;-2.70;95.50
292;DHT22;23311;48.776;9.162;2023-01-19T05:20:29;-2.70;95.50
292;DHT22;23311;48.776;9.162;2023-01-19T05:22:57;-2.70;95.50
292;DHT22;23311;48.776;9.162;2023-01-19T05:25:26;-2.60;95.50
292;DHT22;23311;48.776;9.162;2023-01-19T05:27:54;-2.60;95.50
292;DHT22;23311;48.776;9.162;2023-01-19T05:30:22;-2.60;95.50
292;DHT22;23311;48.776;9.162;2023-01-19T05:32:50;-2.70;95.50
292;DHT22;23311;48.776;9.162;2023-01-19T05:35:18;-2.60;95.50
292;DHT22;23311;48.776;9.162;2023-01-19T05:38:02;-2.70;95.50
292;DHT22;23311;48.776;9.162;2023-01-19T05:40:30;-2.90;95.50
292;DHT22;23311;48.776;9.162;2023-01-19T05:43:00;-2.90;95.50
292;DHT22;23311;48.776;9.162;2023-01-19T05:45:30;-2.90;95.50
292;DHT22;23311;48.776;9.162;2023-01-19T05:47:58;-2.90;95.50
292;DHT22;23311;48.776;9.162;2023-01-19T05:50:27;-3.00;95.50
292;DHT22;23311;48.776;9.162;2023-01-19T05:53:26;-3.10;95.50
292;DHT22;23311;48.776;9.162;2023-01-19T05:55:58;-3.10;95.50
292;DHT22;23311;48.776;9.162;2023-01-19T05:58:27;-3.20;95.50
292;DHT22;23311;48.776;9.162;2023-01-19T06:00:55;-3.00;95.50
292;DHT22;23311;48.776;9.162;2023-01-19T06:03:23;-3.00;95.50
292;DHT22;23311;48.776;9.162;2023-01-19T06:05:51;-2.90;95.50
292;DHT22;23311;48.776;9.162;2023-01-19T06:08:19;-2.80;95.50
292;DHT22;23311;48.776;9.162;2023-01-19T06:10:49;-2.70;95.50
292;DHT22;23311;48.776;9.162;2023-01-19T06:13:17;-2.60;95.50
292;DHT22;23311;48.776;9.162;2023-01-19T06:15:45;-2.60;95.50
292;DHT22;23311;48.776;9.162;2023-01-19T06:18:14;-2.50;95.50
292;DHT22;23311;48.776;9.162;2023-01-19T06:20:42;-2.60;95.50
292;DHT22;23311;48.776;9.162;2023-01-19T06:23:10;-2.70;95.50
292;DHT22;23311;48.776;9.162;2023-01-19T06:25:38;-2.80;95.50
292;DHT22;23311;48.776;9.162;2023-01-19T06:28:08;-2.90;95.50
292;DHT22;23311;48.776;9.162;2023-01-19T06:30:36;-2.80;95.50
292;DHT22;23311;48.776;9.162;2023-01-19T06:33:04;-2.80;95.50
292;DHT22;23311;48.776;9.162;2023-01-19T06:35:32;-2.50;95.50
292;DHT22;23311;48.776;9.162;2023-01-19T06:38:01;-2.60;95.50
292;DHT22;23311;48.776;9.162;2023-01-19T06:40:29;-2.60;95.50
292;DHT22;23311;48.776;9.162;2023-01-19T06:42:57;-2.70;95.50
292;DHT22;23311;48.776;9.162;2023-01-19T06:45:27;-2.70;95.50
292;DHT22;23311;48.776;9.162;2023-01-19T06:47:55;-2.60;95.50
292;DHT22;23311;48.776;9.162;2023-01-19T06:50:23;-2.70;95.50
292;DHT22;23311;48.776;9.162;2023-01-19T06:52:51;-2.70;95.50
292;DHT22;23311;48.776;9.162;2023-01-19T06:55:19;-2.70;95.50
292;DHT22;23311;48.776;9.162;2023-01-19T06:57:55;-2.80;95.50
292;DHT22;23311;48.776;9.162;2023-01-19T07:00:23;-2.90;95.50
292;DHT22;23311;48.776;9.162;2023-01-19T07:02:53;-2.90;95.50
292;DHT22;23311;48.776;9.162;2023-01-19T07:05:21;-3.00;95.50
292;DHT22;23311;48.776;9.162;2023-01-19T07:07:51;-3.10;95.50
292;DHT22;23311;48.776;9.162;2023-01-19T07:10:19;-3.20;95.50
292;DHT22;23311;48.776;9.162;2023-01-19T07:12:47;-3.30;95.50
292;DHT22;23311;48.776;9.162;2023-01-19T07:15:17;-3.40;95.50
292;DHT22;23311;48.776;9.162;2023-01-19T07:17:48;-3.20;95.50
292;DHT22;23311;48.776;9.162;2023-01-19T07:20:18;-3.00;95.50
292;DHT22;23311;48.776;9.162;2023-01-19T07:22:45;-2.70;95.50
292;DHT22;23311;48.776;9.162;2023-01-19T07:25:14;-2.50;95.50
292;DHT22;23311;48.776;9.162;2023-01-19T07:27:42;-2.20;95.50
292;DHT22;23311;48.776;9.162;2023-01-19T07:30:11;-2.20;95.50
292;DHT22;23311;48.776;9.162;2023-01-19T07:32:41;-2.10;95.50
292;DHT22;23311;48.776;9.162;2023-01-19T07:35:09;-2.20;95.50
292;DHT22;23311;48.776;9.162;2023-01-19T07:37:39;-2.20;95.50
292;DHT22;23311;48.776;9.162;2023-01-19T07:40:08;-2.00;95.50
292;DHT22;23311;48.776;9.162;2023-01-19T07:42:36;-2.20;95.50
292;DHT22;23311;48.776;9.162;2023-01-19T07:45:05;-2.30;95.50
292;DHT22;23311;48.776;9.162;2023-01-19T07:47:33;-2.40;95.50
292;DHT22;23311;48.776;9.162;2023-01-19T07:50:01;-2.40;95.50
292;DHT22;23311;48.776;9.162;2023-01-19T07:52:29;-2.30;95.50
292;DHT22;23311;48.776;9.162;2023-01-19T07:54:59;-2.20;95.50
292;DHT22;23311;48.776;9.162;2023-01-19T07:57:27;-1.80;95.50
292;DHT22;23311;48.776;9.162;2023-01-19T07:59:55;-1.80;95.50
292;DHT22;23311;48.776;9.162;2023-01-19T08:02:23;-1.90;95.50
292;DHT22;23311;48.776;9.162;2023-01-19T08:04:52;-2.00;95.50
292;DHT22;23311;48.776;9.162;2023-01-19T08:07:21;-2.00;95.50
292;DHT22;23311;48.776;9.162;2023-01-19T08:09:49;-1.70;95.50
292;DHT22;23311;48.776;9.162;2023-01-19T08:12:18;-1.70;95.50
292;DHT22;23311;48.776;9.162;2023-01-19T08:14:46;-1.70;95.50
292;DHT22;23311;48.776;9.162;2023-01-19T08:17:14;-1.60;95.50
292;DHT22;23311;48.776;9.162;2023-01-19T08:19:42;-1.60;95.50
292;DHT22;23311;48.776;9.162;2023-01-19T08:22:11;-1.40;95.50
292;DHT22;23311;48.776;9.162;2023-01-19T08:24:39;-1.50;95.50
292;DHT22;23311;48.776;9.162;2023-01-19T08:27:07;-1.30;95.50
292;DHT22;23311;48.776;9.162;2023-01-19T08:29:38;-1.10;95.50
292;DHT22;23311;48.776;9.162;2023-01-19T08:32:06;-0.90;95.50
292;DHT22;23311;48.776;9.162;2023-01-19T08:34:34;-0.80;95.50
292;DHT22;23311;48.776;9.162;2023-01-19T08:37:02;-0.80;95.50
292;DHT22;23311;48.776;9.162;2023-01-19T08:39:30;-0.80;95.50
292;DHT22;23311;48.776;9.162;2023-01-19T08:41:58;-0.80;95.50
292;DHT22;23311;48.776;9.162;2023-01-19T08:44:26;-0.80;95.50
292;DHT22;23311;48.776;9.162;2023-01-19T08:46:55;-0.80;95.50
292;DHT22;23311;48.776;9.162;2023-01-19T08:49:23;-0.80;95.50
292;DHT22;23311;48.776;9.162;2023-01-19T08:51:52;-0.50;95.50
292;DHT22;23311;48.776;9.162;2023-01-19T08:54:20;-0.60;95.50
292;DHT22;23311;48.776;9.162;2023-01-19T08:56:48;-0.50;95.50
292;DHT22;23311;48.776;9.162;2023-01-19T08:59:16;-0.50;95.50
292;DHT22;23311;48.776;9.162;2023-01-19T09:01:44;-0.40;95.50
292;DHT22;23311;48.776;9.162;2023-01-19T09:04:14;-0.10;95.50
292;DHT22;23311;48.776;9.162;2023-01-19T09:06:42;0.30;95.50
292;DHT22;23311;48.776;9.162;2023-01-19T09:09:10;0.50;95.50
292;DHT22;23311;48.776;9.162;2023-01-19T09:11:38;0.60;95.50
292;DHT22;23311;48.776;9.162;2023-01-19T09:14:06;0.70;95.50
292;DHT22;23311;48.776;9.162;2023-01-19T09:16:35;0.90;95.50
292;DHT22;23311;48.776;9.162;2023-01-19T09:19:03;1.10;95.50
292;DHT22;23311;48.776;9.162;2023-01-19T09:21:35;1.30;95.50
292;DHT22;23311;48.776;9.162;2023-01-19T09:24:04;1.50;95.50
292;DHT22;23311;48.776;9.162;2023-01-19T09:26:32;1.60;95.50
292;DHT22;23311;48.776;9.162;2023-01-19T09:29:00;1.70;95.50
292;DHT22;23311;48.776;9.162;2023-01-19T09:31:28;1.80;95.50
292;DHT22;23311;48.776;9.162;2023-01-19T09:33:56;1.50;95.50
292;DHT22;23311;48.776;9.162;2023-01-19T09:36:24;1.50;95.50
292;DHT22;23311;48.776;9.162;2023-01-19T09:38:54;1.50;95.50
292;DHT22;23311;48.776;9.162;2023-01-19T09:41:22;1.70;95.50
292;DHT22;23311;48.776;9.162;2023-01-19T09:43:54;1.80;95.50
292;DHT22;23311;48.776;9.162;2023-01-19T09:46:27;1.90;95.50
292;DHT22;23311;48.776;9.162;2023-01-19T09:49:02;2.10;95.50
292;DHT22;23311;48.776;9.162;2023-01-19T09:51:35;2.10;95.50
292;DHT22;23311;48.776;9.162;2023-01-19T09:54:11;2.20;95.50
292;DHT22;23311;48.776;9.162;2023-01-19T09:56:40;2.00;95.50
292;DHT22;23311;48.776;9.162;2023-01-19T09:59:27;2.00;95.50
292;DHT22;23311;48.776;9.162;2023-01-19T10:02:06;1.90;95.50
292;DHT22;23311;48.776;9.162;2023-01-19T10:04:42;2.10;95.50
292;DHT22;23311;48.776;9.162;2023-01-19T10:07:23;2.40;95.50
292;DHT22;23311;48.776;9.162;2023-01-19T10:10:04;2.60;95.50
292;DHT22;23311;48.776;9.162;2023-01-19T10:12:43;2.30;95.50
292;DHT22;23311;48.776;9.162;2023-01-19T10:15:20;2.20;95.50
292;DHT22;23311;48.776;9.162;2023-01-19T10:18:02;2.30;95.50
292;DHT22;23311;48.776;9.162;2023-01-19T10:20:35;2.20;95.50
292;DHT22;23311;48.776;9.162;2023-01-19T10:23:22;2.20;95.50
292;DHT22;23311;48.776;9.162;2023-01-19T10:25:53;2.20;95.50
292;DHT22;23311;48.776;9.162;2023-01-19T10:28:24;2.40;95.50
292;DHT22;23311;48.776;9.162;2023-01-19T10:30:54;2.60;95.50
292;DHT22;23311;48.776;9.162;2023-01-19T10:33:22;2.60;95.50
292;DHT22;23311;48.776;9.162;2023-01-19T10:35:51;2.30;95.50
292;DHT22;23311;48.776;9.162;2023-01-19T10:38:19;2.30;95.50
292;DHT22;23311;48.776;9.162;2023-01-19T10:40:54;2.30;95.50
292;DHT22;23311;48.776;9.162;2023-01-19T10:43:38;2.40;95.50
292;DHT22;23311;48.776;9.162;2023-01-19T10:46:21;2.50;95.50
292;DHT22;23311;48.776;9.162;2023-01-19T10:48:51;2.50;95.50
292;DHT22;23311;48.776;9.162;2023-01-19T10:51:20;2.60;95.50
292;DHT22;23311;48.776;9.162;2023-01-19T10:53:59;2.60;95.50
292;DHT22;23311;48.776;9.162;2023-01-19T10:56:34;2.30;95.50
292;DHT22;23311;48.776;9.162;2023-01-19T10:59:05;2.30;95.50
292;DHT22;23311;48.776;9.162;2023-01-19T11:01:34;2.30;95.50
292;DHT22;23311;48.776;9.162;2023-01-19T11:04:19;2.20;95.50
292;DHT22;23311;48.776;9.162;2023-01-19T11:06:48;2.30;95.50
292;DHT22;23311;48.776;9.162;2023-01-19T11:09:17;2.30;95.50
292;DHT22;23311;48.776;9.162;2023-01-19T11:11:49;2.30;95.50
292;DHT22;23311;48.776;9.162;2023-01-19T11:14:19;2.30;95.50
292;DHT22;23311;48.776;9.162;2023-01-19T11:16:51;2.30;95.50
292;DHT22;23311;48.776;9.162;2023-01-19T11:19:26;2.30;95.50
292;DHT22;23311;48.776;9.162;2023-01-19T11:22:14;2.40;95.50
292;DHT22;23311;48.776;9.162;2023-01-19T11:24:47;2.60;95.50
292;DHT22;23311;48.776;9.162;2023-01-19T11:27:19;2.70;95.50
292;DHT22;23311;48.776;9.162;2023-01-19T11:29:49;2.70;95.50
292;DHT22;23311;48.776;9.162;2023-01-19T11:32:26;2.70;95.50
292;DHT22;23311;48.776;9.162;2023-01-19T11:34:54;2.60;95.50
292;DHT22;23311;48.776;9.162;2023-01-19T11:37:28;2.60;95.50
292;DHT22;23311;48.776;9.162;2023-01-19T11:39:58;2.80;95.50
292;DHT22;23311;48.776;9.162;2023-01-19T11:42:32;2.80;95.50
292;DHT22;23311;48.776;9.162;2023-01-19T11:45:06;2.90;95.50
292;DHT22;23311;48.776;9.162;2023-01-19T11:47:42;3.10;95.50
292;DHT22;23311;48.776;9.162;2023-01-19T11:50:20;3.00;95.50
292;DHT22;23311;48.776;9.162;2023-01-19T11:52:55;3.10;95.50
292;DHT22;23311;48.776;9.162;2023-01-19T11:55:36;2.90;95.50
292;DHT22;23311;48.776;9.162;2023-01-19T11:58:40;3.00;95.50
292;DHT22;23311;48.776;9.162;2023-01-19T12:01:17;3.20;95.50
292;DHT22;23311;48.776;9.162;2023-01-19T12:03:57;3.20;95.50
292;DHT22;23311;48.776;9.162;2023-01-19T12:06:31;3.00;95.50
292;DHT22;23311;48.776;9.162;2023-01-19T12:09:04;3.00;95.50
292;DHT22;23311;48.776;9.162;2023-01-19T12:11:36;3.00;95.50
292;DHT22;23311;48.776;9.162;2023-01-19T12:14:20;2.90;95.50
292;DHT22;23311;48.776;9.162;2023-01-19T12:16:55;2.90;95.50
292;DHT22;23311;48.776;9.162;2023-01-19T12:19:30;3.00;95.50
292;DHT22;23311;48.776;9.162;2023-01-19T12:22:01;2.90;95.50
292;DHT22;23311;48.776;9.162;2023-01-19T12:24:37;2.80;95.50
292;DHT22;23311;48.776;9.162;2023-01-19T12:27:15;2.90;95.50
292;DHT22;23311;48.776;9.162;2023-01-19T12:29:46;3.00;95.50
292;DHT22;23311;48.776;9.162;2023-01-19T12:32:28;2.90;95.50
292;DHT22;23311;48.776;9.162;2023-01-19T12:34:59;3.00;95.50
292;DHT22;23311;48.776;9.162;2023-01-19T12:37:39;3.00;95.50
292;DHT22;23311;48.776;9.162;2023-01-19T12:40:22;3.00;95.50
292;DHT22;23311;48.776;9.162;2023-01-19T12:42:57;3.00;95.50
292;DHT22;23311;48.776;9.162;2023-01-19T12:45:31;2.90;95.50
292;DHT22;23311;48.776;9.162;2023-01-19T12:48:00;2.90;95.50
292;DHT22;23311;48.776;9.162;2023-01-19T12:50:33;2.80;95.50
292;DHT22;23311;48.776;9.162;2023-01-19T12:53:03;2.80;95.50
292;DHT22;23311;48.776;9.162;2023-01-19T12:55:35;2.80;95.50
292;DHT22;23311;48.776;9.162;2023-01-19T12:58:06;2.90;95.50
292;DHT22;23311;48.776;9.162;2023-01-19T13:00:38;2.80;95.50
292;DHT22;23311;48.776;9.162;2023-01-19T13:03:42;2.60;95.50
292;DHT22;23311;48.776;9.162;2023-01-19T13:06:10;2.50;95.50
292;DHT22;23311;48.776;9.162;2023-01-19T13:08:58;2.50;95.50
292;DHT22;23311;48.776;9.162;2023-01-19T13:11:27;2.50;95.50
292;DHT22;23311;48.776;9.162;2023-01-19T13:25:51;2.70;95.50
292;DHT22;23311;48.776;9.162;2023-01-19T13:28:35;2.40;95.50
292;DHT22;23311;48.776;9.162;2023-01-19T13:31:04;2.20;95.50
292;DHT22;23311;48.776;9.162;2023-01-19T13:33:46;2.20;95.50
292;DHT22;23311;48.776;9.162;2023-01-19T13:36:21;2.20;95.50
292;DHT22;23311;48.776;9.162;2023-01-19T13:38:52;2.10;95.50
292;DHT22;23311;48.776;9.162;2023-01-19T13:41:23;1.90;95.50
292;DHT22;23311;48.776;9.162;2023-01-19T13:43:57;1.80;95.50
292;DHT22;23311;48.776;9.162;2023-01-19T13:46:27;1.70;95.50
292;DHT22;23311;48.776;9.162;2023-01-19T13:49:00;1.70;95.50
292;DHT22;23311;48.776;9.162;2023-01-19T13:51:29;1.70;95.50
292;DHT22;23311;48.776;9.162;2023-01-19T13:53:58;1.70;95.50
292;DHT22;23311;48.776;9.162;2023-01-19T13:56:28;1.60;95.50
292;DHT22;23311;48.776;9.162;2023-01-19T13:58:57;1.60;95.50
292;DHT22;23311;48.776;9.162;2023-01-19T14:01:27;1.60;95.50
292;DHT22;23311;48.776;9.162;2023-01-19T14:03:57;1.70;95.50
292;DHT22;23311;48.776;9.162;2023-01-19T14:06:34;1.70;95.50
292;DHT22;23311;48.776;9.162;2023-01-19T14:09:14;1.80;95.50
292;DHT22;23311;48.776;9.162;2023-01-19T14:12:02;1.70;95.50
292;DHT22;23311;48.776;9.162;2023-01-19T14:14:31;1.50;95.50
292;DHT22;23311;48.776;9.162;2023-01-19T14:16:59;1.50;95.50
292;DHT22;23311;48.776;9.162;2023-01-19T14:19:29;1.50;95.50
292;DHT22;23311;48.776;9.162;2023-01-19T14:21:59;1.60;95.50
292;DHT22;23311;48.776;9.162;2023-01-19T14:24:28;1.60;95.50
292;DHT22;23311;48.776;9.162;2023-01-19T14:27:19;1.70;95.50
292;DHT22;23311;48.776;9.162;2023-01-19T14:30:11;1.60;95.50
292;DHT22;23311;48.776;9.162;2023-01-19T14:32:44;1.60;95.50
292;DHT22;23311;48.776;9.162;2023-01-19T14:35:23;1.60;95.50
292;DHT22;23311;48.776;9.162;2023-01-19T14:37:51;1.70;95.50
292;DHT22;23311;48.776;9.162;2023-01-19T14:40:23;1.70;95.50
292;DHT22;23311;48.776;9.162;2023-01-19T14:42:53;1.80;95.50
292;DHT22;23311;48.776;9.162;2023-01-19T14:45:25;1.80;95.50
292;DHT22;23311;48.776;9.162;2023-01-19T14:48:03;1.80;95.50
292;DHT22;23311;48.776;9.162;2023-01-19T14:50:36;1.80;95.50
292;DHT22;23311;48.776;9.162;2023-01-19T14:53:06;1.80;95.50
292;DHT22;23311;48.776;9.162;2023-01-19T14:55:37;1.70;95.50
292;DHT22;23311;48.776;9.162;2023-01-19T14:58:11;1.70;95.50
292;DHT22;23311;48.776;9.162;2023-01-19T15:00:39;1.70;95.50
292;DHT22;23311;48.776;9.162;2023-01-19T15:03:08;1.70;95.50
292;DHT22;23311;48.776;9.162;2023-01-19T15:05:38;1.70;95.50
292;DHT22;23311;48.776;9.162;2023-01-19T15:08:10;1.80;95.50
292;DHT22;23311;48.776;9.162;2023-01-19T15:10:39;1.80;95.50
292;DHT22;23311;48.776;9.162;2023-01-19T15:13:11;1.80;95.50
292;DHT22;23311;48.776;9.162;2023-01-19T15:15:42;1.80;95.50
292;DHT22;23311;48.776;9.162;2023-01-19T15:18:13;1.80;95.50
292;DHT22;23311;48.776;9.162;2023-01-19T15:20:46;1.80;95.50
292;DHT22;23311;48.776;9.162;2023-01-19T15:23:14;1.80;95.50
292;DHT22;23311;48.776;9.162;2023-01-19T15:25:42;1.80;95.50
292;DHT22;23311;48.776;9.162;2023-01-19T15:28:15;1.80;95.50
292;DHT22;23311;48.776;9.162;2023-01-19T15:30:44;1.80;95.50
292;DHT22;23311;48.776;9.162;2023-01-19T15:33:15;1.80;95.50
292;DHT22;23311;48.776;9.162;2023-01-19T15:35:45;1.80;95.50
292;DHT22;23311;48.776;9.162;2023-01-19T15:38:13;1.80;95.50
292;DHT22;23311;48.776;9.162;2023-01-19T15:40:41;1.80;95.50
292;DHT22;23311;48.776;9.162;2023-01-19T15:43:09;1.80;95.50
292;DHT22;23311;48.776;9.162;2023-01-19T15:45:40;1.70;95.50
292;DHT22;23311;48.776;9.162;2023-01-19T15:48:10;1.70;95.50
292;DHT22;23311;48.776;9.162;2023-01-19T15:50:40;1.70;95.50
292;DHT22;23311;48.776;9.162;2023-01-19T15:53:12;1.80;95.50
292;DHT22;23311;48.776;9.162;2023-01-19T15:55:40;1.80;95.50
292;DHT22;23311;48.776;9.162;2023-01-19T15:58:09;1.80;95.50
292;DHT22;23311;48.776;9.162;2023-01-19T16:00:40;1.80;95.50
292;DHT22;23311;48.776;9.162;2023-01-19T16:03:09;1.80;95.50
292;DHT22;23311;48.776;9.162;2023-01-19T16:05:37;1.70;95.50
292;DHT22;23311;48.776;9.162;2023-01-19T16:08:11;1.70;95.50
292;DHT22;23311;48.776;9.162;2023-01-19T16:10:39;1.70;95.50
292;DHT22;23311;48.776;9.162;2023-01-19T16:13:08;1.70;95.50
292;DHT22;23311;48.776;9.162;2023-01-19T16:15:38;1.70;95.50
292;DHT22;23311;48.776;9.162;2023-01-19T16:18:08;1.60;95.50
292;DHT22;23311;48.776;9.162;2023-01-19T16:20:36;1.60;95.50
292;DHT22;23311;48.776;9.162;2023-01-19T16:23:04;1.70;95.50
292;DHT22;23311;48.776;9.162;2023-01-19T16:25:43;1.70;95.50
292;DHT22;23311;48.776;9.162;2023-01-19T16:28:11;1.70;95.50
292;DHT22;23311;48.776;9.162;2023-01-19T16:30:39;1.70;95.50
292;DHT22;23311;48.776;9.162;2023-01-19T16:33:08;1.60;95.50
292;DHT22;23311;48.776;9.162;2023-01-19T16:35:37;1.60;95.50
292;DHT22;23311;48.776;9.162;2023-01-19T16:38:05;1.50;95.50
292;DHT22;23311;48.776;9.162;2023-01-19T16:40:35;1.40;95.50
292;DHT22;23311;48.776;9.162;2023-01-19T16:43:04;1.30;95.50
292;DHT22;23311;48.776;9.162;2023-01-19T16:45:32;1.20;95.50
292;DHT22;23311;48.776;9.162;2023-01-19T16:48:01;1.10;95.50
292;DHT22;23311;48.776;9.162;2023-01-19T16:50:29;0.90;95.50